Time;durP1;ratioP1;P1;durP2;ratioP2;P2;SDS_P1;SDS_P2;PMS_P1;PMS_P2;Temp;Humidity;BMP_temperature;BMP_pressure;BME280_temperature;BME280_humidity;BME280_pressure;Samples;Min_cycle;Max_cycle;Signal;HPM_P1;HPM_P2
2022/05/28 00:02:43;;;;;;;10.83;6.70;;;;;;;8.49;89.36;98521.87;2291948;77;20923;-83
2022/05/28 00:05:44;;;;;;;14.90;6.33;;;;;;;8.50;89.42;98519.72;2292024;77;20950;-83
2022/05/28 00:08:44;;;;;;;7.50;5.60;;;;;;;8.53;89.49;98527.14;2291629;77;21372;-83
2022/05/28 00:11:45;;;;;;;12.80;6.67;;;;;;;8.56;89.70;98528.48;2291917;77;20969;-82
2022/05/28 00:14:45;;;;;;;11.77;7.40;;;;;;;8.59;89.78;98528.95;2269130;77;21006;-83
2022/05/28 00:17:45;;;;;;;9.20;6.70;;;;;;;8.61;89.73;98529.85;2229155;80;20940;-83
2022/05/28 00:20:47;;;;;;;8.87;6.37;;;;;;;8.66;89.95;98532.09;2228859;80;20995;-82
2022/05/28 00:23:47;;;;;;;8.47;6.37;;;;;;;8.73;90.46;98530.06;2229267;80;20884;-83
2022/05/28 00:26:48;;;;;;;13.37;6.20;;;;;;;8.78;90.28;98530.13;2229367;80;21332;-83
2022/05/28 00:29:48;;;;;;;13.07;6.40;;;;;;;8.80;90.05;98524.08;2229317;80;20948;-83
2022/05/28 00:32:48;;;;;;;9.87;6.27;;;;;;;8.84;90.17;98525.88;2229357;80;20951;-83
2022/05/28 00:35:49;;;;;;;12.37;6.47;;;;;;;8.88;90.27;98528.09;2229201;80;20988;-83
2022/05/28 00:38:49;;;;;;;9.93;6.07;;;;;;;8.90;90.48;98528.56;2229515;80;20924;-83
2022/05/28 00:41:49;;;;;;;7.40;5.67;;;;;;;8.98;90.39;98531.69;2229125;80;20971;-83
2022/05/28 00:44:50;;;;;;;12.27;5.90;;;;;;;8.98;90.13;98529.96;2229519;80;21041;-84
2022/05/28 00:47:50;;;;;;;13.10;6.70;;;;;;;8.92;89.60;98524.25;2229612;80;21019;-83
2022/05/28 00:50:51;;;;;;;9.40;6.70;;;;;;;8.89;89.58;98520.30;2229498;80;21327;-83
2022/05/28 00:53:51;;;;;;;10.97;6.57;;;;;;;8.85;89.69;98521.12;2229636;80;20912;-83
2022/05/28 00:56:51;;;;;;;11.07;6.93;;;;;;;8.77;89.60;98511.03;2230052;80;20984;-84
2022/05/28 00:59:54;;;;;;;13.77;7.87;;;;;;;8.72;89.99;98514.00;2229749;80;21306;-82
2022/05/28 01:02:53;;;;;;;13.27;9.00;;;;;;;8.64;89.69;98510.38;2229260;80;20924;-83
2022/05/28 01:05:53;;;;;;;11.53;8.57;;;;;;;8.62;89.78;98506.88;2229491;80;21011;-82
2022/05/28 01:08:53;;;;;;;18.30;9.17;;;;;;;8.60;89.85;98505.98;2229347;80;20944;-84
2022/05/28 01:11:53;;;;;;;11.40;7.60;;;;;;;8.57;89.87;98502.05;2229230;80;20948;-84
2022/05/28 01:14:54;;;;;;;10.80;6.50;;;;;;;8.56;89.86;98503.77;2229022;78;21007;-84
2022/05/28 01:17:54;;;;;;;12.67;6.50;;;;;;;8.54;89.76;98493.77;2229290;80;20928;-83
2022/05/28 01:20:55;;;;;;;11.77;6.10;;;;;;;8.52;89.94;98486.80;2229560;80;20948;-83
2022/05/28 01:23:55;;;;;;;9.00;6.53;;;;;;;8.49;89.85;98475.92;2229628;80;20931;-84
2022/05/28 01:26:55;;;;;;;13.23;6.17;;;;;;;8.46;89.62;98478.48;2230113;80;21051;-82
2022/05/28 01:29:56;;;;;;;8.30;6.27;;;;;;;8.43;89.42;98482.76;2230328;80;20967;-83
2022/05/28 01:32:56;;;;;;;9.93;5.90;;;;;;;8.39;89.33;98483.14;2230138;79;21299;-83
2022/05/28 01:35:57;;;;;;;8.87;6.17;;;;;;;8.36;89.32;98480.92;2230242;80;20960;-83
2022/05/28 01:38:57;;;;;;;8.27;5.50;;;;;;;8.33;89.58;98486.05;2229998;80;20912;-83
2022/05/28 01:41:58;;;;;;;9.97;5.40;;;;;;;8.29;89.49;98482.09;2230056;80;20916;-83
2022/05/28 01:44:58;;;;;;;11.90;5.87;;;;;;;8.29;89.67;98485.13;2229686;80;20979;-83
2022/05/28 01:47:58;;;;;;;11.73;5.97;;;;;;;8.26;89.54;98482.05;2229919;80;21008;-82
2022/05/28 01:50:59;;;;;;;12.17;6.23;;;;;;;8.22;89.64;98489.36;2229815;80;20924;-83
2022/05/28 01:54:11;;;;;;;7.30;5.50;;;;;;;8.22;89.62;98487.19;2229636;80;21305;-83
2022/05/28 01:57:10;;;;;;;12.03;5.83;;;;;;;8.21;89.81;98481.11;2189745;80;20935;-84
2022/05/28 02:00:11;;;;;;;20.03;6.57;;;;;;;8.24;89.74;98481.58;2229214;80;20963;-84
2022/05/28 02:03:11;;;;;;;12.97;6.00;;;;;;;8.27;89.83;98472.10;2229272;80;21303;-86
2022/05/28 02:06:11;;;;;;;11.27;5.70;;;;;;;8.29;89.76;98476.90;2229175;80;20987;-83
2022/05/28 02:09:13;;;;;;;14.53;5.90;;;;;;;8.27;89.39;98474.70;2229034;80;20916;-84
2022/05/28 02:12:12;;;;;;;11.30;4.90;;;;;;;8.27;89.54;98472.10;2229089;80;20920;-83
2022/05/28 02:15:15;;;;;;;11.60;5.13;;;;;;;8.26;89.52;98468.17;2229136;78;21011;-84
2022/05/28 02:18:13;;;;;;;7.77;5.07;;;;;;;8.26;89.40;98465.58;2228804;80;21019;-83
2022/05/28 02:21:13;;;;;;;11.00;5.13;;;;;;;8.27;89.28;98468.63;2229073;80;20908;-83
2022/05/28 02:24:14;;;;;;;8.97;5.40;;;;;;;8.27;89.19;98465.60;2229008;80;20979;-83
2022/05/28 02:27:14;;;;;;;17.00;5.83;;;;;;;8.28;89.08;98468.65;2229412;80;21003;-84
2022/05/28 02:30:15;;;;;;;9.60;5.13;;;;;;;8.28;88.73;98474.28;2229318;80;20935;-83
2022/05/28 02:33:15;;;;;;;9.87;5.07;;;;;;;8.29;88.84;98469.09;2229922;80;20948;-84
2022/05/28 02:36:15;;;;;;;8.27;5.50;;;;;;;8.29;88.54;98466.50;2230235;80;21296;-84
2022/05/28 02:39:16;;;;;;;11.77;5.20;;;;;;;8.29;88.32;98465.20;2230040;80;20940;-84
2022/05/28 02:42:16;;;;;;;10.43;5.10;;;;;;;8.31;88.43;98466.52;2230222;80;20945;-83
2022/05/28 02:45:17;;;;;;;8.80;4.83;;;;;;;8.29;88.45;98462.59;2229977;80;20979;-84
2022/05/28 02:48:17;;;;;;;9.90;4.47;;;;;;;8.28;88.27;98462.15;2230340;80;20892;-84
2022/05/28 02:51:18;;;;;;;10.80;4.87;;;;;;;8.26;88.16;98465.16;2230477;80;20964;-84
2022/05/28 02:54:18;;;;;;;11.77;4.60;;;;;;;8.26;88.10;98465.16;2230125;80;20876;-84
2022/05/28 02:57:18;;;;;;;8.70;4.50;;;;;;;8.30;87.98;98466.07;2230421;80;20948;-84
2022/05/28 03:00:19;;;;;;;11.37;5.77;;;;;;;8.31;87.94;98481.70;2229672;80;20928;-83
2022/05/28 03:03:19;;;;;;;13.80;7.23;;;;;;;8.33;87.88;98479.55;2229531;80;20988;-83
2022/05/28 03:06:19;;;;;;;18.60;7.73;;;;;;;8.35;87.80;98474.84;2229516;80;20981;-83
2022/05/28 03:09:20;;;;;;;20.27;5.97;;;;;;;8.39;87.32;98476.64;2229557;80;20908;-84
2022/05/28 03:12:20;;;;;;;10.43;5.13;;;;;;;8.39;87.32;98476.64;2230297;80;20944;-84
2022/05/28 03:15:21;;;;;;;9.87;4.27;;;;;;;9.75;96.32;98463.55;2229826;78;21011;-84
2022/05/28 03:18:21;;;;;;;13.67;5.23;;;;;;;11.83;88.59;98468.18;2230196;80;20905;-84
2022/05/28 03:21:21;;;;;;;13.30;4.63;;;;;;;13.05;81.39;98468.05;2230042;80;20956;-83
2022/05/28 03:24:22;;;;;;;14.00;5.27;;;;;;;13.44;75.96;98470.94;2229818;80;21335;-83
2022/05/28 03:27:22;;;;;;;13.83;4.83;;;;;;;13.39;73.65;98465.73;2228816;80;20979;-83
2022/05/28 03:30:23;;;;;;;15.47;5.37;;;;;;;13.66;74.82;98471.69;2228824;80;21015;-83
2022/05/28 03:33:23;;;;;;;15.35;4.60;;;;;;;13.74;70.28;98472.51;2228344;80;20987;-83
2022/05/28 03:36:27;;;;;;;14.60;5.10;;;;;;;13.34;71.21;98467.50;2228347;80;21387;-84
2022/05/28 03:39:27;;;;;;;10.93;4.33;;;;;;;13.42;72.88;98458.72;2229382;80;21064;-83
2022/05/28 03:42:30;;;;;;;13.32;5.00;;;;;;;13.25;70.58;98455.75;2229698;80;20928;-83
2022/05/28 03:45:31;;;;;;;12.88;4.95;;;;;;;13.11;69.00;98458.84;2229572;80;21047;-84
2022/05/28 03:48:31;;;;;;;21.12;5.60;;;;;;;12.83;70.99;98453.25;2229810;80;20912;-84
2022/05/28 03:51:31;;;;;;;11.45;4.62;;;;;;;12.94;71.94;98451.46;2229475;80;21331;-83
2022/05/28 03:54:32;;;;;;;18.55;5.22;;;;;;;12.53;68.70;98456.83;2227829;80;21015;-84
2022/05/28 03:57:32;;;;;;;14.38;4.60;;;;;;;12.39;71.15;98455.55;2229200;80;20916;-85
2022/05/28 04:00:33;;;;;;;10.50;3.75;;;;;;;12.43;70.82;98455.53;2229004;80;21413;-84
2022/05/28 04:03:35;;;;;;;11.35;4.17;;;;;;;12.76;70.10;98460.25;2227671;80;20971;-85
2022/05/28 04:06:33;;;;;;;12.03;4.25;;;;;;;12.65;69.77;98460.28;2226962;80;21005;-83
2022/05/28 04:09:34;;;;;;;12.05;3.60;;;;;;;12.85;68.47;98459.35;2226667;80;21446;-85
2022/05/28 04:12:34;;;;;;;14.45;3.65;;;;;;;13.13;69.03;98458.84;2226642;80;20983;-85
2022/05/28 04:15:35;;;;;;;7.42;2.80;;;;;;;14.26;67.46;98459.88;2246294;78;21091;-84
2022/05/28 04:18:35;;;;;;;8.48;3.27;;;;;;;15.07;65.26;98444.63;2290157;78;20953;-84
2022/05/28 04:21:36;;;;;;;8.48;3.08;;;;;;;15.34;63.62;98460.93;2291185;77;20989;-84
2022/05/28 04:24:36;;;;;;;7.65;3.42;;;;;;;15.39;61.80;98454.72;2291961;77;20906;-84
2022/05/28 04:27:38;;;;;;;9.83;3.67;;;;;;;15.57;61.55;98458.84;2291480;77;20953;-84
2022/05/28 04:30:39;;;;;;;7.58;2.85;;;;;;;15.00;60.90;98464.42;2290533;77;20933;-84
2022/05/28 04:33:39;;;;;;;7.58;2.58;;;;;;;14.11;62.30;98471.82;2290730;78;20949;-84
2022/05/28 04:36:40;;;;;;;12.25;3.52;;;;;;;13.25;64.08;98458.38;2291278;77;20934;-84
2022/05/28 04:39:40;;;;;;;13.45;3.42;;;;;;;12.53;65.71;98472.09;2292017;77;20941;-84
2022/05/28 04:42:40;;;;;;;13.48;3.58;;;;;;;12.22;67.61;98477.81;2290783;77;20914;-83
2022/05/28 04:45:41;;;;;;;6.25;2.90;;;;;;;12.09;67.83;98459.03;2289951;77;21064;-82
2022/05/28 04:48:41;;;;;;;7.12;3.12;;;;;;;11.77;69.18;98470.75;2290221;78;21004;-83
2022/05/28 04:51:42;;;;;;;13.00;4.30;;;;;;;11.53;69.47;98472.90;2289460;77;20941;-81
2022/05/28 04:54:42;;;;;;;16.30;4.20;;;;;;;11.49;69.83;98473.33;2290014;77;20973;-84
2022/05/28 04:57:42;;;;;;;10.90;3.80;;;;;;;11.50;70.13;98467.66;2290224;77;21019;-84
2022/05/28 05:00:43;;;;;;;16.65;3.40;;;;;;;11.58;70.48;98467.67;2289792;77;21432;-84
2022/05/28 05:03:43;;;;;;;12.00;3.65;;;;;;;11.64;70.36;98472.92;2290915;77;20934;-85
2022/05/28 05:06:44;;;;;;;13.88;4.08;;;;;;;11.67;70.23;98472.92;2290411;77;21012;-84
2022/05/28 05:09:44;;;;;;;7.72;3.37;;;;;;;11.74;70.74;98475.98;2290631;77;20944;-84
2022/05/28 05:12:44;;;;;;;13.78;3.70;;;;;;;11.82;70.17;98473.41;2290903;77;20937;-84
2022/05/28 05:15:45;;;;;;;17.20;3.65;;;;;;;11.93;70.06;98465.13;2294818;77;21412;-84
2022/05/28 05:18:45;;;;;;;8.65;3.20;;;;;;;12.12;69.71;98469.05;2305629;77;21019;-84
2022/05/28 05:21:46;;;;;;;7.37;3.25;;;;;;;12.44;67.91;98465.57;2303209;77;21015;-83
2022/05/28 05:24:46;;;;;;;6.85;2.77;;;;;;;12.01;66.65;98470.80;2305512;77;21293;-84
2022/05/28 05:27:49;;;;;;;9.85;2.80;;;;;;;11.93;67.91;98464.70;2306154;77;20997;-83
2022/05/28 05:30:50;;;;;;;10.50;3.25;;;;;;;12.09;68.30;98469.50;2306019;77;20972;-83
2022/05/28 05:33:50;;;;;;;7.72;2.62;;;;;;;12.20;65.21;98460.36;2306187;77;20937;-85
2022/05/28 05:36:50;;;;;;;8.78;2.80;;;;;;;12.24;66.66;98464.72;2305825;77;20945;-84
2022/05/28 05:39:51;;;;;;;8.00;2.90;;;;;;;12.52;64.29;98461.19;2305570;77;20993;-85
2022/05/28 05:42:51;;;;;;;6.97;2.60;;;;;;;12.72;64.62;98467.25;2306055;77;20965;-84
2022/05/28 05:45:52;;;;;;;8.58;3.00;;;;;;;12.78;64.96;98466.36;2304632;77;21439;-85
2022/05/28 05:48:52;;;;;;;9.83;2.37;;;;;;;13.11;64.86;98466.70;2304550;77;20949;-83
2022/05/28 05:51:53;;;;;;;7.72;2.50;;;;;;;13.12;63.50;98463.65;2304601;77;20989;-84
2022/05/28 05:54:53;;;;;;;3.90;1.95;;;;;;;13.07;64.35;98458.42;2304215;77;21354;-83
2022/05/28 05:57:53;;;;;;;6.53;2.72;;;;;;;13.30;64.14;98460.53;2305233;77;20968;-84
2022/05/28 06:00:54;;;;;;;6.60;2.60;;;;;;;13.35;63.44;98465.31;2305889;77;20925;-84
2022/05/28 06:03:54;;;;;;;7.90;2.65;;;;;;;13.51;61.97;98470.03;2306083;77;21265;-81
2022/05/28 06:06:57;;;;;;;8.60;3.05;;;;;;;13.68;61.28;98469.92;2306381;77;21002;-84
2022/05/28 06:09:57;;;;;;;11.85;2.87;;;;;;;13.59;61.24;98463.43;2264092;77;21336;-84
2022/05/28 06:12:57;;;;;;;7.95;2.80;;;;;;;13.36;61.42;98465.74;2306688;77;20991;-84
2022/05/28 06:15:58;;;;;;;10.53;3.50;;;;;;;13.56;62.04;98465.62;2303184;77;21005;-83
2022/05/28 06:18:58;;;;;;;9.00;2.80;;;;;;;13.75;61.61;98448.45;2292328;77;20950;-82
2022/05/28 06:21:59;;;;;;;6.03;3.08;;;;;;;13.96;60.41;98458.83;2292059;77;20922;-85
2022/05/28 06:24:59;;;;;;;11.57;2.77;;;;;;;14.08;59.37;98447.36;2292239;77;20949;-84
2022/05/28 06:27:59;;;;;;;10.08;2.70;;;;;;;14.10;59.25;98444.28;2292053;77;20973;-84
2022/05/28 06:31:02;;;;;;;6.47;2.60;;;;;;;14.06;57.91;98443.44;2291729;77;21049;-84
2022/05/28 06:34:03;;;;;;;8.83;2.50;;;;;;;14.21;58.11;98449.86;2292136;77;20921;-84
2022/05/28 06:37:03;;;;;;;8.15;2.45;;;;;;;14.14;58.40;98438.12;2291908;78;20937;-84
2022/05/28 06:40:04;;;;;;;9.93;2.80;;;;;;;14.33;58.88;98446.25;2292324;77;21312;-83
2022/05/28 06:43:04;;;;;;;8.45;2.37;;;;;;;14.66;57.87;98440.69;2291753;77;20961;-85
2022/05/28 06:46:04;;;;;;;7.25;2.33;;;;;;;14.71;55.65;98437.14;2291851;77;21036;-83
2022/05/28 06:49:05;;;;;;;3.85;2.00;;;;;;;14.54;52.30;98439.50;2290479;77;21008;-81
2022/05/28 06:52:07;;;;;;;6.30;2.12;;;;;;;14.61;53.60;98425.86;2289620;77;21021;-80
2022/05/28 06:55:08;;;;;;;5.65;2.10;;;;;;;14.68;51.11;98442.42;2291010;77;21044;-82
2022/05/28 06:58:08;;;;;;;6.72;2.00;;;;;;;14.34;52.63;98454.55;2290491;78;20980;-82
2022/05/28 07:01:09;;;;;;;4.62;1.85;;;;;;;13.82;52.16;98448.41;2291437;77;21095;-80
2022/05/28 07:04:09;;;;;;;2.55;1.12;;;;;;;13.46;52.58;98447.34;2292055;77;20992;-83
2022/05/28 07:07:09;;;;;;;9.60;1.85;;;;;;;13.65;53.96;98428.85;2291241;77;21028;-82
2022/05/28 07:10:10;;;;;;;4.17;1.52;;;;;;;13.95;52.60;98438.27;2292046;77;20929;-82
2022/05/28 07:13:10;;;;;;;5.85;1.40;;;;;;;14.07;50.45;98451.73;2291537;77;21429;-82
2022/05/28 07:16:11;;;;;;;4.95;1.90;;;;;;;14.21;48.98;98425.37;2277068;77;21039;-82
2022/05/28 07:19:11;;;;;;;4.80;1.60;;;;;;;14.24;49.21;98435.39;2228334;80;20998;-82
2022/05/28 07:22:11;;;;;;;5.03;2.05;;;;;;;14.37;50.14;98434.84;2229159;80;20999;-82
2022/05/28 07:25:14;;;;;;;5.00;1.67;;;;;;;14.37;49.01;98433.97;2229217;80;20948;-82
2022/05/28 07:28:33;;;;;;;4.83;1.37;;;;;;;14.62;49.74;98427.16;2229389;80;21575;-82
2022/05/28 07:31:30;;;;;;;8.43;1.30;;;;;;;14.69;48.96;98441.54;2229337;80;20923;-83
2022/05/28 07:34:30;;;;;;;5.50;1.72;;;;;;;14.75;47.48;98432.31;2228548;79;21382;-82
2022/05/28 07:37:31;;;;;;;5.75;2.27;;;;;;;14.68;47.99;98414.84;2228457;80;21006;-83
2022/05/28 07:40:34;;;;;;;3.25;1.10;;;;;;;14.53;49.01;98413.26;2229343;80;20995;-82
2022/05/28 07:43:32;;;;;;;5.67;1.60;;;;;;;14.48;48.22;98419.00;2229422;80;20964;-81
2022/05/28 07:46:32;;;;;;;5.05;1.27;;;;;;;14.27;47.28;98428.80;2228626;80;21011;-82
2022/05/28 07:49:35;;;;;;;5.15;1.62;;;;;;;14.71;48.54;98424.00;2229539;80;20964;-81
2022/05/28 07:52:36;;;;;;;6.20;1.67;;;;;;;14.90;46.56;98425.56;2229431;80;21323;-81
2022/05/28 07:55:39;;;;;;;5.70;1.70;;;;;;;15.17;46.01;98421.27;2229273;80;20934;-82
2022/05/28 07:58:41;;;;;;;6.22;1.87;;;;;;;15.11;46.26;98412.59;2229496;79;20967;-83
2022/05/28 08:01:41;;;;;;;7.37;2.10;;;;;;;15.07;46.69;98403.88;2229848;80;20990;-80
2022/05/28 08:04:42;;;;;;;6.67;1.70;;;;;;;15.57;46.26;98401.88;2230062;80;21339;-81
2022/05/28 08:07:42;;;;;;;5.10;1.52;;;;;;;15.58;44.98;98400.98;2228594;80;21059;-81
2022/05/28 08:10:43;;;;;;;3.65;1.27;;;;;;;15.56;45.91;98407.13;2228974;80;20984;-81
2022/05/28 08:13:44;;;;;;;6.17;1.90;;;;;;;15.60;45.67;98408.44;2229121;80;20955;-82
2022/05/28 08:16:44;;;;;;;4.40;1.75;;;;;;;15.34;44.90;98414.91;2250256;78;21013;-82
2022/05/28 08:19:45;;;;;;;4.85;1.92;;;;;;;15.07;46.45;98409.58;2291123;77;20978;-83
2022/05/28 08:26:04;;;;;;;5.95;2.17;;;;;;;14.64;49.38;98422.76;2290745;78;20966;-82
2022/05/28 08:29:05;;;;;;;12.03;2.60;;;;;;;14.69;50.26;98420.52;2290399;77;21351;-82
2022/05/28 08:32:05;;;;;;;7.92;2.85;;;;;;;14.59;49.05;98428.51;2290482;77;20930;-82
2022/05/28 08:35:05;;;;;;;6.87;2.17;;;;;;;14.95;49.18;98397.47;2289483;77;21181;-80
2022/05/28 08:38:06;;;;;;;11.63;2.90;;;;;;;15.46;48.18;98397.64;2290278;77;20953;-81
2022/05/28 08:41:06;;;;;;;3.27;1.82;;;;;;;15.53;46.22;98395.34;2291317;77;20976;-81
2022/05/28 08:44:06;;;;;;;6.20;3.47;;;;;;;15.98;47.00;98391.16;2291242;77;20909;-82
2022/05/28 08:47:07;;;;;;;7.58;2.98;;;;;;;16.30;46.04;98391.05;2290192;77;21115;-81
2022/05/28 08:50:07;;;;;;;3.87;2.08;;;;;;;16.50;44.73;98395.08;2290236;77;20969;-81
2022/05/28 08:53:08;;;;;;;8.00;2.10;;;;;;;16.86;45.58;98384.73;2290182;77;21427;-81
2022/05/28 08:56:08;;;;;;;5.72;1.57;;;;;;;17.17;44.38;98387.14;2289554;77;20979;-81
2022/05/28 08:59:08;;;;;;;5.40;1.40;;;;;;;16.94;44.93;98384.13;2290042;78;21008;-82
2022/05/28 09:02:10;;;;;;;4.40;1.35;;;;;;;16.97;45.24;98380.56;2290798;77;20937;-82
2022/05/28 09:05:09;;;;;;;6.25;1.77;;;;;;;17.23;45.37;98386.59;2290749;77;20996;-82
2022/05/28 09:08:10;;;;;;;6.12;1.90;;;;;;;17.52;44.21;98382.88;2291701;77;21060;-83
2022/05/28 09:11:10;;;;;;;3.40;1.52;;;;;;;17.69;42.48;98393.06;2290263;77;21368;-80
2022/05/28 09:14:10;;;;;;;9.30;2.05;;;;;;;17.45;42.11;98390.52;2291088;77;20933;-82
2022/05/28 09:17:11;;;;;;;8.08;2.10;;;;;;;17.16;42.50;98398.59;2295188;77;21001;-82
2022/05/28 09:20:11;;;;;;;5.25;2.00;;;;;;;16.97;43.08;98385.83;2305577;77;20989;-82
2022/05/28 09:23:12;;;;;;;6.33;1.80;;;;;;;16.76;43.86;98400.32;2305858;77;20898;-82
2022/05/28 09:26:12;;;;;;;4.75;1.62;;;;;;;17.05;41.65;98394.00;2305436;77;21368;-82
2022/05/28 09:29:15;;;;;;;4.22;2.02;;;;;;;16.94;41.24;98384.13;2306194;77;21077;-81
2022/05/28 09:32:13;;;;;;;5.00;1.75;;;;;;;16.37;41.92;98394.86;2305924;77;21005;-81
2022/05/28 09:35:13;;;;;;;3.50;1.40;;;;;;;15.65;44.25;98413.63;2305878;77;21008;-81
2022/05/28 09:38:13;;;;;;;5.95;1.70;;;;;;;15.15;46.18;98421.73;2306018;77;20937;-81
2022/05/28 09:41:14;;;;;;;2.60;1.40;;;;;;;14.71;48.09;98446.33;2305335;77;20933;-81
2022/05/28 09:44:15;;;;;;;3.27;1.82;;;;;;;13.71;52.84;98462.03;2305097;77;20950;-81
2022/05/28 09:47:17;;;;;;;3.50;1.75;;;;;;;13.13;54.76;98462.33;2303952;77;21008;-81
2022/05/28 09:50:18;;;;;;;6.20;1.72;;;;;;;12.89;56.95;98436.20;2304952;77;21387;-82
2022/05/28 09:56:37;;;;;;;7.75;2.12;;;;;;;13.09;58.64;98418.67;2305628;77;20934;-82
2022/05/28 09:59:38;;;;;;;5.05;1.65;;;;;;;13.29;58.96;98419.91;2305199;77;20980;-82
2022/05/28 10:02:38;;;;;;;5.87;1.57;;;;;;;13.51;58.73;98418.90;2304272;77;20981;-82
2022/05/28 10:05:39;;;;;;;7.80;1.70;;;;;;;13.88;59.31;98416.91;2303076;77;20984;-82
2022/05/28 10:08:39;;;;;;;5.37;1.50;;;;;;;14.11;59.25;98406.66;2305025;77;20902;-82
2022/05/28 10:11:39;;;;;;;5.62;1.35;;;;;;;14.40;56.55;98407.23;2304631;77;20975;-83
2022/05/28 10:14:40;;;;;;;4.10;1.30;;;;;;;14.37;56.65;98411.64;2304291;77;21380;-82
2022/05/28 10:17:40;;;;;;;3.95;1.17;;;;;;;14.58;54.05;98411.45;2297358;77;21104;-81
2022/05/28 10:20:41;;;;;;;5.53;1.77;;;;;;;14.92;52.35;98400.13;2289126;77;20918;-82
2022/05/28 10:23:41;;;;;;;4.62;1.32;;;;;;;15.23;52.05;98405.41;2289030;77;20973;-83
2022/05/28 10:26:41;;;;;;;3.92;1.62;;;;;;;15.80;49.17;98396.29;2289816;77;21032;-82
2022/05/28 10:29:42;;;;;;;4.78;1.40;;;;;;;16.07;48.91;98405.48;2289391;77;20990;-81
2022/05/28 10:32:42;;;;;;;3.87;1.47;;;;;;;16.01;48.56;98400.77;2289395;77;21033;-81
2022/05/28 10:35:42;;;;;;;4.50;1.77;;;;;;;15.82;46.81;98387.92;2288857;77;20977;-82
2022/05/28 10:38:43;;;;;;;4.35;1.75;;;;;;;15.73;47.51;98389.39;2289926;77;20949;-82
2022/05/28 10:41:43;;;;;;;5.55;1.98;;;;;;;15.51;47.70;98399.30;2290360;77;21243;-82
2022/05/28 10:44:44;;;;;;;5.03;1.52;;;;;;;15.37;46.34;98400.41;2289512;77;21688;-82
2022/05/28 10:47:44;;;;;;;7.30;2.45;;;;;;;15.08;45.60;98393.78;2288970;77;21087;-82
2022/05/28 10:50:44;;;;;;;4.42;1.27;;;;;;;14.95;46.67;98406.66;2290558;77;20973;-81
2022/05/28 10:53:45;;;;;;;4.75;2.27;;;;;;;15.35;46.95;98418.83;2290889;77;20982;-81
2022/05/28 10:56:45;;;;;;;3.62;1.15;;;;;;;15.52;47.83;98413.33;2290783;77;20941;-81
2022/05/28 10:59:46;;;;;;;3.87;1.27;;;;;;;15.62;47.08;98407.10;2290857;77;20992;-81
2022/05/28 11:02:46;;;;;;;3.80;1.20;;;;;;;15.41;46.56;98395.52;2290239;77;20972;-83
2022/05/28 11:05:46;;;;;;;4.30;1.20;;;;;;;15.33;47.18;98407.91;2289605;77;21012;-82
2022/05/28 11:08:47;;;;;;;3.50;1.55;;;;;;;15.74;47.23;98396.39;2288935;77;21025;-82
2022/05/28 11:11:48;;;;;;;2.10;1.30;;;;;;;15.83;46.92;98402.81;2289583;77;21372;-81
2022/05/28 11:14:48;;;;;;;2.33;1.40;;;;;;;15.83;45.17;98390.98;2289528;77;20992;-82
2022/05/28 11:17:48;;;;;;;4.08;1.45;;;;;;;15.93;45.23;98379.40;2263716;77;21082;-81
2022/05/28 11:20:48;;;;;;;2.10;1.05;;;;;;;16.17;44.78;98387.31;2227753;80;20991;-81
2022/05/28 11:23:49;;;;;;;3.65;1.50;;;;;;;16.32;44.09;98386.62;2228214;80;20972;-82
2022/05/28 11:26:49;;;;;;;2.02;1.32;;;;;;;16.09;44.21;98394.93;2227199;80;21437;-81
2022/05/28 11:29:50;;;;;;;2.90;1.12;;;;;;;16.04;44.28;98390.19;2227144;80;21005;-81
2022/05/28 11:32:50;;;;;;;3.22;1.70;;;;;;;16.17;44.80;98393.03;2229131;80;20920;-82
2022/05/28 11:35:50;;;;;;;15.35;2.27;;;;;;;16.34;44.27;98388.33;2228893;80;21346;-81
2022/05/28 11:38:51;;;;;;;4.33;1.62;;;;;;;16.43;43.92;98384.66;2228703;80;21008;-80
2022/05/28 11:41:51;;;;;;;3.00;1.30;;;;;;;16.64;41.69;98364.95;2229107;79;20947;-81
2022/05/28 11:44:52;;;;;;;6.10;1.62;;;;;;;16.83;41.90;98366.35;2227853;80;20952;-81
2022/05/28 11:47:52;;;;;;;4.95;1.85;;;;;;;17.12;42.08;98372.32;2228830;80;21039;-79
2022/05/28 11:54:11;;;;;;;4.03;1.50;;;;;;;16.93;37.64;98378.44;2229518;80;21342;-79
2022/05/28 11:57:15;;;;;;;3.87;1.75;;;;;;;16.97;39.36;98361.66;2229632;80;20912;-80
2022/05/28 12:00:15;;;;;;;3.05;1.60;;;;;;;17.32;40.10;98350.77;2229753;80;20978;-79
2022/05/28 12:03:16;;;;;;;6.35;1.70;;;;;;;17.44;38.78;98357.98;2229097;80;20974;-79
2022/05/28 12:06:16;;;;;;;3.27;1.57;;;;;;;17.08;38.55;98346.47;2227456;80;21030;-79
2022/05/28 12:09:18;;;;;;;5.55;1.67;;;;;;;16.62;40.18;98357.53;2227935;80;21865;-79
2022/05/28 12:12:17;;;;;;;4.62;1.90;;;;;;;17.00;40.18;98346.22;2226924;80;21023;-79
2022/05/28 12:15:17;;;;;;;2.72;1.40;;;;;;;17.30;39.73;98351.26;2227801;80;21018;-80
2022/05/28 12:18:18;;;;;;;5.15;1.92;;;;;;;16.84;38.81;98348.31;2227566;78;21063;-80
2022/05/28 12:21:18;;;;;;;5.65;2.33;;;;;;;16.76;40.52;98367.38;2228258;80;20959;-81
2022/05/28 12:24:18;;;;;;;4.75;2.08;;;;;;;16.80;40.21;98359.83;2228164;80;21047;-81
2022/05/28 12:27:21;;;;;;;11.65;1.90;;;;;;;16.43;41.34;98369.72;2228185;80;20991;-83
2022/05/28 12:30:19;;;;;;;5.67;2.00;;;;;;;16.39;42.33;98366.72;2227878;80;21373;-81
2022/05/28 12:33:22;;;;;;;5.40;1.90;;;;;;;16.80;41.84;98354.10;2227084;79;20968;-80
2022/05/28 12:36:22;;;;;;;6.17;2.45;;;;;;;17.33;42.17;98349.88;2229517;80;21011;-81
2022/05/28 12:39:25;;;;;;;8.63;1.87;;;;;;;17.90;43.07;98338.87;2230116;80;20968;-81
2022/05/28 12:42:25;;;;;;;6.08;1.67;;;;;;;17.58;42.77;98337.86;2230064;80;20892;-82
2022/05/28 12:45:26;;;;;;;4.10;1.85;;;;;;;16.81;42.91;98380.02;2230101;80;20928;-83
2022/05/28 12:48:26;;;;;;;6.10;1.75;;;;;;;15.70;45.26;98389.44;2230006;80;20971;-82
2022/05/28 12:51:27;;;;;;;4.33;1.60;;;;;;;15.01;47.04;98413.60;2230192;80;20948;-83
2022/05/28 12:54:27;;;;;;;11.28;2.25;;;;;;;14.98;47.23;98413.20;2229960;80;20963;-81
2022/05/28 12:57:27;;;;;;;2.72;1.37;;;;;;;15.04;47.70;98421.00;2229931;80;20965;-81
2022/05/28 13:00:28;;;;;;;7.92;1.40;;;;;;;14.86;48.79;98417.29;2229983;80;20916;-82
2022/05/28 13:03:28;;;;;;;6.67;1.70;;;;;;;14.40;50.10;98438.74;2230049;80;21387;-82
2022/05/28 13:06:28;;;;;;;14.38;1.82;;;;;;;14.26;50.83;98442.81;2230244;80;20955;-82
2022/05/28 13:09:29;;;;;;;7.55;1.70;;;;;;;14.20;51.00;98463.00;2230505;80;21268;-82
2022/05/28 13:12:29;;;;;;;3.27;2.00;;;;;;;14.46;50.00;98447.91;2229935;80;20901;-83
2022/05/28 13:15:30;;;;;;;0.98;0.88;;;;;;;14.63;49.53;98447.28;2229905;80;20920;-82
2022/05/28 13:18:30;;;;;;;4.92;1.07;;;;;;;14.67;48.30;98434.98;2254913;78;20958;-83
2022/05/28 13:21:30;;;;;;;4.45;1.30;;;;;;;14.75;48.52;98431.86;2282384;78;20907;-81
2022/05/28 13:24:31;;;;;;;2.08;0.90;;;;;;;14.81;48.38;98433.11;2282284;77;20901;-81
2022/05/28 13:27:31;;;;;;;3.98;1.12;;;;;;;15.00;48.46;98416.67;2282355;78;21318;-82
2022/05/28 13:30:32;;;;;;;2.33;0.88;;;;;;;15.08;46.93;98414.81;2282237;77;20933;-83
2022/05/28 13:33:33;;;;;;;2.17;2.00;;;;;;;15.07;47.00;98401.25;2282110;77;20961;-82
2022/05/28 13:36:33;;;;;;;2.25;1.77;;;;;;;15.27;46.92;98404.48;2282292;77;20934;-82
2022/05/28 13:39:33;;;;;;;9.35;2.90;;;;;;;15.36;45.50;98415.75;2282023;78;20934;-83
2022/05/28 13:42:33;;;;;;;7.35;4.33;;;;;;;15.43;44.71;98414.78;2282237;77;20957;-82
2022/05/28 13:45:34;;;;;;;2.60;1.35;;;;;;;15.53;44.09;98412.44;2281858;78;20942;-83
2022/05/28 13:48:34;;;;;;;5.75;3.47;;;;;;;15.59;43.57;98412.38;2282048;78;20958;-83
2022/05/28 13:51:35;;;;;;;4.70;2.35;;;;;;;15.60;44.63;98419.38;2282217;77;20925;-83
2022/05/28 13:54:35;;;;;;;13.28;8.25;;;;;;;15.72;44.66;98424.48;2282172;77;20921;-82
2022/05/28 13:57:35;;;;;;;9.75;5.22;;;;;;;15.78;45.13;98431.42;2281838;77;20950;-82
2022/05/28 14:00:37;;;;;;;8.80;3.35;;;;;;;15.82;46.05;98422.13;2282316;77;20957;-83
2022/05/28 14:03:36;;;;;;;8.55;3.15;;;;;;;15.97;45.45;98437.25;2282144;77;20890;-83
2022/05/28 14:06:36;;;;;;;5.67;3.25;;;;;;;15.99;45.26;98438.10;2282031;78;20918;-82
2022/05/28 14:09:39;;;;;;;19.15;6.65;;;;;;;16.08;45.69;98431.37;2282280;78;20918;-81
2022/05/28 14:12:37;;;;;;;9.85;4.15;;;;;;;16.13;45.47;98421.63;2282088;77;21308;-81
2022/05/28 14:15:38;;;;;;;3.58;1.52;;;;;;;16.54;46.09;98421.78;2282262;77;20922;-83
2022/05/28 14:18:38;;;;;;;3.17;2.00;;;;;;;16.66;44.58;98419.40;2292844;77;20989;-82